sensor_id;sensor_type;location;lat;lon;timestamp;P1;durP1;ratioP1;P2;durP2;ratioP2
17618;SDS011;8928;51.678;6.074;2023-07-09T00:00:38;21.58;;;10.40;;
17618;SDS011;8928;51.678;6.074;2023-07-09T00:03:25;19.63;;;11.30;;
17618;SDS011;8928;51.678;6.074;2023-07-09T00:06:12;20.42;;;11.18;;
17618;SDS011;8928;51.678;6.074;2023-07-09T00:09:00;16.58;;;10.55;;
17618;SDS011;8928;51.678;6.074;2023-07-09T00:11:47;19.65;;;10.68;;
17618;SDS011;8928;51.678;6.074;2023-07-09T00:14:37;16.70;;;9.95;;
17618;SDS011;8928;51.678;6.074;2023-07-09T00:17:26;18.45;;;9.93;;
17618;SDS011;8928;51.678;6.074;2023-07-09T00:20:16;16.17;;;9.45;;
17618;SDS011;8928;51.678;6.074;2023-07-09T00:23:04;18.08;;;10.13;;
17618;SDS011;8928;51.678;6.074;2023-07-09T00:25:51;21.35;;;10.27;;
17618;SDS011;8928;51.678;6.074;2023-07-09T00:28:39;21.45;;;10.05;;
17618;SDS011;8928;51.678;6.074;2023-07-09T00:31:27;18.27;;;9.93;;
17618;SDS011;8928;51.678;6.074;2023-07-09T00:34:14;23.08;;;10.13;;
17618;SDS011;8928;51.678;6.074;2023-07-09T00:37:03;19.35;;;9.93;;
17618;SDS011;8928;51.678;6.074;2023-07-09T00:39:54;15.00;;;9.02;;
17618;SDS011;8928;51.678;6.074;2023-07-09T00:42:43;17.23;;;9.13;;
17618;SDS011;8928;51.678;6.074;2023-07-09T00:45:34;15.30;;;9.68;;
17618;SDS011;8928;51.678;6.074;2023-07-09T00:48:22;19.40;;;9.75;;
17618;SDS011;8928;51.678;6.074;2023-07-09T00:51:10;17.23;;;9.60;;
17618;SDS011;8928;51.678;6.074;2023-07-09T00:54:02;16.65;;;10.45;;
17618;SDS011;8928;51.678;6.074;2023-07-09T00:56:57;15.70;;;9.85;;
17618;SDS011;8928;51.678;6.074;2023-07-09T00:59:48;18.10;;;10.60;;
17618;SDS011;8928;51.678;6.074;2023-07-09T01:02:39;17.45;;;10.23;;
17618;SDS011;8928;51.678;6.074;2023-07-09T01:05:31;16.25;;;10.07;;
17618;SDS011;8928;51.678;6.074;2023-07-09T01:08:18;19.90;;;10.23;;
17618;SDS011;8928;51.678;6.074;2023-07-09T01:11:13;17.60;;;10.50;;
17618;SDS011;8928;51.678;6.074;2023-07-09T01:14:09;17.13;;;9.80;;
17618;SDS011;8928;51.678;6.074;2023-07-09T01:16:58;21.92;;;10.57;;
17618;SDS011;8928;51.678;6.074;2023-07-09T01:19:50;18.40;;;11.07;;
17618;SDS011;8928;51.678;6.074;2023-07-09T01:22:38;21.67;;;10.23;;
17618;SDS011;8928;51.678;6.074;2023-07-09T01:25:26;16.23;;;10.30;;
17618;SDS011;8928;51.678;6.074;2023-07-09T01:28:13;18.90;;;10.60;;
17618;SDS011;8928;51.678;6.074;2023-07-09T01:31:03;17.17;;;10.07;;
17618;SDS011;8928;51.678;6.074;2023-07-09T01:33:50;16.83;;;10.10;;
17618;SDS011;8928;51.678;6.074;2023-07-09T01:36:37;19.20;;;10.05;;
17618;SDS011;8928;51.678;6.074;2023-07-09T01:39:26;19.15;;;9.57;;
17618;SDS011;8928;51.678;6.074;2023-07-09T01:42:14;17.08;;;10.30;;
17618;SDS011;8928;51.678;6.074;2023-07-09T01:45:03;19.63;;;10.23;;
17618;SDS011;8928;51.678;6.074;2023-07-09T01:47:51;21.88;;;10.95;;
17618;SDS011;8928;51.678;6.074;2023-07-09T01:50:39;20.75;;;10.30;;
17618;SDS011;8928;51.678;6.074;2023-07-09T01:53:28;18.35;;;10.48;;
17618;SDS011;8928;51.678;6.074;2023-07-09T01:56:17;20.20;;;10.15;;
17618;SDS011;8928;51.678;6.074;2023-07-09T01:59:04;20.65;;;10.27;;
17618;SDS011;8928;51.678;6.074;2023-07-09T02:01:52;16.08;;;9.68;;
17618;SDS011;8928;51.678;6.074;2023-07-09T02:04:43;21.15;;;9.60;;
17618;SDS011;8928;51.678;6.074;2023-07-09T02:07:30;17.10;;;9.90;;
17618;SDS011;8928;51.678;6.074;2023-07-09T02:10:17;17.17;;;9.57;;
17618;SDS011;8928;51.678;6.074;2023-07-09T02:13:06;18.05;;;10.68;;
17618;SDS011;8928;51.678;6.074;2023-07-09T02:15:53;18.77;;;9.82;;
17618;SDS011;8928;51.678;6.074;2023-07-09T02:18:40;16.40;;;9.65;;
17618;SDS011;8928;51.678;6.074;2023-07-09T02:21:27;17.15;;;9.77;;
17618;SDS011;8928;51.678;6.074;2023-07-09T02:24:15;18.40;;;9.95;;
17618;SDS011;8928;51.678;6.074;2023-07-09T02:27:03;19.30;;;10.25;;
17618;SDS011;8928;51.678;6.074;2023-07-09T02:29:53;19.33;;;9.82;;
17618;SDS011;8928;51.678;6.074;2023-07-09T02:32:41;22.33;;;10.63;;
17618;SDS011;8928;51.678;6.074;2023-07-09T02:35:28;16.77;;;10.32;;
17618;SDS011;8928;51.678;6.074;2023-07-09T02:38:15;22.33;;;10.85;;
17618;SDS011;8928;51.678;6.074;2023-07-09T02:41:02;19.80;;;10.35;;
17618;SDS011;8928;51.678;6.074;2023-07-09T02:43:49;17.50;;;9.98;;
17618;SDS011;8928;51.678;6.074;2023-07-09T02:46:37;23.13;;;11.20;;
17618;SDS011;8928;51.678;6.074;2023-07-09T02:49:24;18.80;;;10.93;;
17618;SDS011;8928;51.678;6.074;2023-07-09T02:52:11;20.67;;;11.02;;
17618;SDS011;8928;51.678;6.074;2023-07-09T02:54:59;17.85;;;10.95;;
17618;SDS011;8928;51.678;6.074;2023-07-09T02:57:46;20.92;;;10.95;;
17618;SDS011;8928;51.678;6.074;2023-07-09T03:00:33;18.67;;;11.05;;
17618;SDS011;8928;51.678;6.074;2023-07-09T03:03:21;17.73;;;11.30;;
17618;SDS011;8928;51.678;6.074;2023-07-09T03:06:08;20.73;;;10.65;;
17618;SDS011;8928;51.678;6.074;2023-07-09T03:08:56;17.55;;;10.90;;
17618;SDS011;8928;51.678;6.074;2023-07-09T03:11:43;21.02;;;12.25;;
17618;SDS011;8928;51.678;6.074;2023-07-09T03:14:30;21.52;;;11.48;;
17618;SDS011;8928;51.678;6.074;2023-07-09T03:17:17;19.50;;;11.15;;
17618;SDS011;8928;51.678;6.074;2023-07-09T03:20:06;17.17;;;10.45;;
17618;SDS011;8928;51.678;6.074;2023-07-09T03:22:54;21.48;;;11.23;;
17618;SDS011;8928;51.678;6.074;2023-07-09T03:25:41;18.48;;;10.57;;
17618;SDS011;8928;51.678;6.074;2023-07-09T03:28:29;17.83;;;11.35;;
17618;SDS011;8928;51.678;6.074;2023-07-09T03:31:18;18.95;;;10.85;;
17618;SDS011;8928;51.678;6.074;2023-07-09T03:34:05;18.67;;;10.55;;
17618;SDS011;8928;51.678;6.074;2023-07-09T03:36:53;19.67;;;10.20;;
17618;SDS011;8928;51.678;6.074;2023-07-09T03:39:40;20.77;;;10.68;;
17618;SDS011;8928;51.678;6.074;2023-07-09T03:42:27;18.05;;;11.27;;
17618;SDS011;8928;51.678;6.074;2023-07-09T03:45:15;17.85;;;10.57;;
17618;SDS011;8928;51.678;6.074;2023-07-09T03:48:02;18.00;;;11.00;;
17618;SDS011;8928;51.678;6.074;2023-07-09T03:50:49;19.90;;;11.25;;
17618;SDS011;8928;51.678;6.074;2023-07-09T03:53:38;21.52;;;10.95;;
17618;SDS011;8928;51.678;6.074;2023-07-09T03:56:25;17.45;;;10.40;;
17618;SDS011;8928;51.678;6.074;2023-07-09T03:59:12;17.70;;;10.60;;
17618;SDS011;8928;51.678;6.074;2023-07-09T04:01:59;19.90;;;10.15;;
17618;SDS011;8928;51.678;6.074;2023-07-09T04:04:48;15.32;;;9.90;;
17618;SDS011;8928;51.678;6.074;2023-07-09T04:07:35;18.67;;;10.60;;
17618;SDS011;8928;51.678;6.074;2023-07-09T04:10:23;16.88;;;9.80;;
17618;SDS011;8928;51.678;6.074;2023-07-09T04:13:10;18.60;;;10.20;;
17618;SDS011;8928;51.678;6.074;2023-07-09T04:15:58;19.50;;;10.90;;
17618;SDS011;8928;51.678;6.074;2023-07-09T04:18:45;21.73;;;10.88;;
17618;SDS011;8928;51.678;6.074;2023-07-09T04:21:32;17.30;;;9.52;;
17618;SDS011;8928;51.678;6.074;2023-07-09T04:24:19;16.88;;;9.73;;
17618;SDS011;8928;51.678;6.074;2023-07-09T04:27:08;18.52;;;9.95;;
17618;SDS011;8928;51.678;6.074;2023-07-09T04:29:55;17.25;;;9.80;;
17618;SDS011;8928;51.678;6.074;2023-07-09T04:32:42;16.55;;;9.10;;
17618;SDS011;8928;51.678;6.074;2023-07-09T04:35:30;20.73;;;9.95;;
17618;SDS011;8928;51.678;6.074;2023-07-09T04:38:17;19.38;;;10.00;;
17618;SDS011;8928;51.678;6.074;2023-07-09T04:41:05;17.98;;;9.45;;
17618;SDS011;8928;51.678;6.074;2023-07-09T04:43:53;15.63;;;8.88;;
17618;SDS011;8928;51.678;6.074;2023-07-09T04:46:40;19.33;;;9.70;;
17618;SDS011;8928;51.678;6.074;2023-07-09T04:49:27;19.83;;;9.35;;
17618;SDS011;8928;51.678;6.074;2023-07-09T04:52:14;20.02;;;11.13;;
17618;SDS011;8928;51.678;6.074;2023-07-09T04:55:02;15.98;;;10.15;;
17618;SDS011;8928;51.678;6.074;2023-07-09T04:57:49;18.10;;;9.40;;
17618;SDS011;8928;51.678;6.074;2023-07-09T05:00:38;17.77;;;10.50;;
17618;SDS011;8928;51.678;6.074;2023-07-09T05:03:25;16.92;;;9.90;;
17618;SDS011;8928;51.678;6.074;2023-07-09T05:06:13;17.08;;;10.10;;
17618;SDS011;8928;51.678;6.074;2023-07-09T05:09:00;16.10;;;9.82;;
17618;SDS011;8928;51.678;6.074;2023-07-09T05:11:48;16.63;;;10.10;;
17618;SDS011;8928;51.678;6.074;2023-07-09T05:14:35;17.25;;;10.02;;
17618;SDS011;8928;51.678;6.074;2023-07-09T05:17:23;19.08;;;9.80;;
17618;SDS011;8928;51.678;6.074;2023-07-09T05:20:10;17.73;;;9.63;;
17618;SDS011;8928;51.678;6.074;2023-07-09T05:22:58;19.75;;;10.25;;
17618;SDS011;8928;51.678;6.074;2023-07-09T05:25:45;17.52;;;10.30;;
17618;SDS011;8928;51.678;6.074;2023-07-09T05:28:32;18.75;;;9.98;;
17618;SDS011;8928;51.678;6.074;2023-07-09T05:31:19;18.95;;;9.48;;
17618;SDS011;8928;51.678;6.074;2023-07-09T05:34:07;16.25;;;9.68;;
17618;SDS011;8928;51.678;6.074;2023-07-09T05:36:54;16.98;;;9.32;;
17618;SDS011;8928;51.678;6.074;2023-07-09T05:39:41;17.45;;;9.63;;
17618;SDS011;8928;51.678;6.074;2023-07-09T05:42:29;23.83;;;9.82;;
17618;SDS011;8928;51.678;6.074;2023-07-09T05:45:16;19.52;;;9.93;;
17618;SDS011;8928;51.678;6.074;2023-07-09T05:48:03;18.92;;;9.60;;
17618;SDS011;8928;51.678;6.074;2023-07-09T05:50:52;18.00;;;9.30;;
17618;SDS011;8928;51.678;6.074;2023-07-09T05:53:40;16.92;;;9.32;;
17618;SDS011;8928;51.678;6.074;2023-07-09T05:56:28;17.25;;;9.20;;
17618;SDS011;8928;51.678;6.074;2023-07-09T05:59:15;16.88;;;9.10;;
17618;SDS011;8928;51.678;6.074;2023-07-09T06:02:02;20.45;;;9.88;;
17618;SDS011;8928;51.678;6.074;2023-07-09T06:04:49;18.83;;;9.50;;
17618;SDS011;8928;51.678;6.074;2023-07-09T06:07:38;17.42;;;9.18;;
17618;SDS011;8928;51.678;6.074;2023-07-09T06:10:25;15.82;;;9.27;;
17618;SDS011;8928;51.678;6.074;2023-07-09T06:13:12;18.63;;;9.40;;
17618;SDS011;8928;51.678;6.074;2023-07-09T06:15:59;16.55;;;9.15;;
17618;SDS011;8928;51.678;6.074;2023-07-09T06:18:47;17.42;;;9.43;;
17618;SDS011;8928;51.678;6.074;2023-07-09T06:21:34;16.92;;;8.98;;
17618;SDS011;8928;51.678;6.074;2023-07-09T06:24:23;18.88;;;9.35;;
17618;SDS011;8928;51.678;6.074;2023-07-09T06:27:10;18.90;;;9.15;;
17618;SDS011;8928;51.678;6.074;2023-07-09T06:29:58;13.50;;;8.10;;
17618;SDS011;8928;51.678;6.074;2023-07-09T06:32:45;17.98;;;8.98;;
17618;SDS011;8928;51.678;6.074;2023-07-09T06:35:32;18.40;;;8.20;;
17618;SDS011;8928;51.678;6.074;2023-07-09T06:38:19;18.67;;;8.18;;
17618;SDS011;8928;51.678;6.074;2023-07-09T06:41:07;17.60;;;8.52;;
17618;SDS011;8928;51.678;6.074;2023-07-09T06:43:54;15.48;;;8.10;;
17618;SDS011;8928;51.678;6.074;2023-07-09T06:46:42;17.58;;;8.63;;
17618;SDS011;8928;51.678;6.074;2023-07-09T06:49:30;14.52;;;8.18;;
17618;SDS011;8928;51.678;6.074;2023-07-09T06:52:17;17.48;;;8.05;;
17618;SDS011;8928;51.678;6.074;2023-07-09T06:55:04;16.17;;;7.60;;
17618;SDS011;8928;51.678;6.074;2023-07-09T06:57:53;16.42;;;7.90;;
17618;SDS011;8928;51.678;6.074;2023-07-09T07:00:40;16.85;;;7.95;;
17618;SDS011;8928;51.678;6.074;2023-07-09T07:03:27;13.52;;;7.60;;
17618;SDS011;8928;51.678;6.074;2023-07-09T07:06:14;15.77;;;7.90;;
17618;SDS011;8928;51.678;6.074;2023-07-09T07:09:02;13.65;;;7.53;;
17618;SDS011;8928;51.678;6.074;2023-07-09T07:11:49;15.18;;;7.38;;
17618;SDS011;8928;51.678;6.074;2023-07-09T07:14:37;19.65;;;7.88;;
17618;SDS011;8928;51.678;6.074;2023-07-09T07:17:24;16.60;;;7.97;;
17618;SDS011;8928;51.678;6.074;2023-07-09T07:20:12;16.00;;;7.65;;
17618;SDS011;8928;51.678;6.074;2023-07-09T07:23:00;14.65;;;7.43;;
17618;SDS011;8928;51.678;6.074;2023-07-09T07:25:47;12.52;;;6.43;;
17618;SDS011;8928;51.678;6.074;2023-07-09T07:28:34;12.63;;;6.80;;
17618;SDS011;8928;51.678;6.074;2023-07-09T07:31:23;15.63;;;7.50;;
17618;SDS011;8928;51.678;6.074;2023-07-09T07:34:10;16.83;;;7.10;;
17618;SDS011;8928;51.678;6.074;2023-07-09T07:36:58;12.50;;;6.97;;
17618;SDS011;8928;51.678;6.074;2023-07-09T07:39:45;12.98;;;6.97;;
17618;SDS011;8928;51.678;6.074;2023-07-09T07:42:32;12.63;;;6.82;;
17618;SDS011;8928;51.678;6.074;2023-07-09T07:45:19;15.88;;;6.97;;
17618;SDS011;8928;51.678;6.074;2023-07-09T07:48:08;14.05;;;7.03;;
17618;SDS011;8928;51.678;6.074;2023-07-09T07:50:58;15.07;;;7.15;;
17618;SDS011;8928;51.678;6.074;2023-07-09T07:53:47;15.07;;;7.00;;
17618;SDS011;8928;51.678;6.074;2023-07-09T07:56:34;10.60;;;6.60;;
17618;SDS011;8928;51.678;6.074;2023-07-09T07:59:22;13.88;;;7.50;;
17618;SDS011;8928;51.678;6.074;2023-07-09T08:02:11;19.27;;;7.28;;
17618;SDS011;8928;51.678;6.074;2023-07-09T08:05:00;12.45;;;6.80;;
17618;SDS011;8928;51.678;6.074;2023-07-09T08:07:47;10.70;;;6.72;;
17618;SDS011;8928;51.678;6.074;2023-07-09T08:10:34;13.82;;;6.70;;
17618;SDS011;8928;51.678;6.074;2023-07-09T08:13:21;15.57;;;6.97;;
17618;SDS011;8928;51.678;6.074;2023-07-09T08:16:09;14.02;;;6.95;;
17618;SDS011;8928;51.678;6.074;2023-07-09T08:18:57;12.88;;;6.95;;
17618;SDS011;8928;51.678;6.074;2023-07-09T08:21:46;15.80;;;7.07;;
17618;SDS011;8928;51.678;6.074;2023-07-09T08:24:33;14.70;;;6.60;;
17618;SDS011;8928;51.678;6.074;2023-07-09T08:27:20;12.13;;;6.47;;
17618;SDS011;8928;51.678;6.074;2023-07-09T08:30:07;12.52;;;6.93;;
17618;SDS011;8928;51.678;6.074;2023-07-09T08:32:55;15.32;;;6.47;;
17618;SDS011;8928;51.678;6.074;2023-07-09T08:35:42;13.02;;;6.18;;
17618;SDS011;8928;51.678;6.074;2023-07-09T08:38:31;12.55;;;6.13;;
17618;SDS011;8928;51.678;6.074;2023-07-09T08:41:28;12.32;;;6.65;;
17618;SDS011;8928;51.678;6.074;2023-07-09T08:44:27;9.63;;;6.30;;
17618;SDS011;8928;51.678;6.074;2023-07-09T08:47:33;16.45;;;6.43;;
17618;SDS011;8928;51.678;6.074;2023-07-09T08:50:32;12.02;;;6.10;;
17618;SDS011;8928;51.678;6.074;2023-07-09T08:53:25;9.73;;;5.88;;
17618;SDS011;8928;51.678;6.074;2023-07-09T08:56:20;11.35;;;5.85;;
17618;SDS011;8928;51.678;6.074;2023-07-09T08:59:08;16.33;;;6.60;;
17618;SDS011;8928;51.678;6.074;2023-07-09T09:02:00;12.55;;;6.22;;
17618;SDS011;8928;51.678;6.074;2023-07-09T09:04:52;13.50;;;5.95;;
17618;SDS011;8928;51.678;6.074;2023-07-09T09:07:40;11.25;;;5.85;;
17618;SDS011;8928;51.678;6.074;2023-07-09T09:10:31;11.02;;;5.22;;
17618;SDS011;8928;51.678;6.074;2023-07-09T09:13:22;11.43;;;5.80;;
17618;SDS011;8928;51.678;6.074;2023-07-09T09:16:17;9.93;;;5.85;;
17618;SDS011;8928;51.678;6.074;2023-07-09T09:19:12;14.07;;;6.00;;
17618;SDS011;8928;51.678;6.074;2023-07-09T09:22:08;16.98;;;5.93;;
17618;SDS011;8928;51.678;6.074;2023-07-09T09:25:02;12.25;;;5.60;;
17618;SDS011;8928;51.678;6.074;2023-07-09T09:28:00;14.55;;;5.57;;
17618;SDS011;8928;51.678;6.074;2023-07-09T09:30:48;15.65;;;5.43;;
17618;SDS011;8928;51.678;6.074;2023-07-09T09:33:40;13.55;;;5.57;;
17618;SDS011;8928;51.678;6.074;2023-07-09T09:36:28;8.63;;;5.53;;
17618;SDS011;8928;51.678;6.074;2023-07-09T09:39:16;9.80;;;5.20;;
17618;SDS011;8928;51.678;6.074;2023-07-09T09:42:07;16.77;;;5.43;;
17618;SDS011;8928;51.678;6.074;2023-07-09T09:44:58;10.52;;;5.22;;
17618;SDS011;8928;51.678;6.074;2023-07-09T09:47:47;11.57;;;5.60;;
17618;SDS011;8928;51.678;6.074;2023-07-09T09:50:35;14.73;;;5.30;;
17618;SDS011;8928;51.678;6.074;2023-07-09T09:53:22;9.35;;;5.47;;
17618;SDS011;8928;51.678;6.074;2023-07-09T09:56:11;11.13;;;5.30;;
17618;SDS011;8928;51.678;6.074;2023-07-09T09:59:03;8.95;;;5.20;;
17618;SDS011;8928;51.678;6.074;2023-07-09T10:01:57;13.35;;;5.38;;
17618;SDS011;8928;51.678;6.074;2023-07-09T10:04:46;11.13;;;5.32;;
17618;SDS011;8928;51.678;6.074;2023-07-09T10:07:34;12.50;;;5.28;;
17618;SDS011;8928;51.678;6.074;2023-07-09T10:10:30;12.70;;;4.95;;
17618;SDS011;8928;51.678;6.074;2023-07-09T10:13:20;8.32;;;5.20;;
17618;SDS011;8928;51.678;6.074;2023-07-09T10:16:16;16.95;;;5.05;;
17618;SDS011;8928;51.678;6.074;2023-07-09T10:19:12;9.63;;;4.85;;
17618;SDS011;8928;51.678;6.074;2023-07-09T10:22:05;10.70;;;4.72;;
17618;SDS011;8928;51.678;6.074;2023-07-09T10:25:00;13.52;;;4.93;;
17618;SDS011;8928;51.678;6.074;2023-07-09T10:28:00;9.43;;;4.88;;
17618;SDS011;8928;51.678;6.074;2023-07-09T10:31:07;8.25;;;4.63;;
17618;SDS011;8928;51.678;6.074;2023-07-09T10:34:05;10.25;;;5.00;;
17618;SDS011;8928;51.678;6.074;2023-07-09T10:37:12;10.23;;;4.82;;
17618;SDS011;8928;51.678;6.074;2023-07-09T10:40:10;11.45;;;5.00;;
17618;SDS011;8928;51.678;6.074;2023-07-09T10:43:01;8.77;;;4.90;;
17618;SDS011;8928;51.678;6.074;2023-07-09T10:45:52;7.82;;;4.53;;
17618;SDS011;8928;51.678;6.074;2023-07-09T10:48:44;9.35;;;4.63;;
17618;SDS011;8928;51.678;6.074;2023-07-09T10:51:38;12.75;;;4.50;;
17618;SDS011;8928;51.678;6.074;2023-07-09T10:54:28;9.57;;;4.25;;
17618;SDS011;8928;51.678;6.074;2023-07-09T10:57:18;9.23;;;4.10;;
17618;SDS011;8928;51.678;6.074;2023-07-09T11:03:02;9.70;;;4.28;;
17618;SDS011;8928;51.678;6.074;2023-07-09T11:05:55;11.93;;;4.40;;
17618;SDS011;8928;51.678;6.074;2023-07-09T11:08:43;12.65;;;4.50;;
17618;SDS011;8928;51.678;6.074;2023-07-09T11:11:33;9.02;;;4.25;;
17618;SDS011;8928;51.678;6.074;2023-07-09T11:14:25;10.60;;;4.38;;
17618;SDS011;8928;51.678;6.074;2023-07-09T11:17:18;9.00;;;4.10;;
17618;SDS011;8928;51.678;6.074;2023-07-09T11:20:07;10.05;;;4.35;;
17618;SDS011;8928;51.678;6.074;2023-07-09T11:23:04;7.95;;;3.92;;
17618;SDS011;8928;51.678;6.074;2023-07-09T11:26:02;8.57;;;3.95;;
17618;SDS011;8928;51.678;6.074;2023-07-09T11:29:11;9.70;;;4.10;;
17618;SDS011;8928;51.678;6.074;2023-07-09T11:32:08;14.60;;;4.25;;
17618;SDS011;8928;51.678;6.074;2023-07-09T11:35:07;9.20;;;4.00;;
17618;SDS011;8928;51.678;6.074;2023-07-09T11:37:55;8.77;;;4.13;;
17618;SDS011;8928;51.678;6.074;2023-07-09T11:40:54;8.50;;;4.05;;
17618;SDS011;8928;51.678;6.074;2023-07-09T11:43:47;8.27;;;3.80;;
17618;SDS011;8928;51.678;6.074;2023-07-09T11:46:35;11.50;;;4.50;;
17618;SDS011;8928;51.678;6.074;2023-07-09T11:49:27;10.20;;;3.92;;
17618;SDS011;8928;51.678;6.074;2023-07-09T11:52:22;13.55;;;4.40;;
17618;SDS011;8928;51.678;6.074;2023-07-09T11:55:19;8.93;;;3.97;;
17618;SDS011;8928;51.678;6.074;2023-07-09T11:58:12;12.73;;;4.18;;
17618;SDS011;8928;51.678;6.074;2023-07-09T12:01:02;15.38;;;4.60;;
17618;SDS011;8928;51.678;6.074;2023-07-09T12:04:00;8.52;;;4.70;;
17618;SDS011;8928;51.678;6.074;2023-07-09T12:06:47;9.35;;;4.80;;
17618;SDS011;8928;51.678;6.074;2023-07-09T12:09:37;9.43;;;4.35;;
17618;SDS011;8928;51.678;6.074;2023-07-09T12:12:29;7.80;;;4.40;;
17618;SDS011;8928;51.678;6.074;2023-07-09T12:15:17;12.30;;;5.22;;
17618;SDS011;8928;51.678;6.074;2023-07-09T12:18:10;14.05;;;5.20;;
17618;SDS011;8928;51.678;6.074;2023-07-09T12:20:58;13.35;;;4.75;;
17618;SDS011;8928;51.678;6.074;2023-07-09T12:23:46;10.18;;;4.95;;
17618;SDS011;8928;51.678;6.074;2023-07-09T12:26:34;11.18;;;4.70;;
17618;SDS011;8928;51.678;6.074;2023-07-09T12:29:23;11.40;;;4.60;;
17618;SDS011;8928;51.678;6.074;2023-07-09T12:32:12;11.18;;;4.85;;
17618;SDS011;8928;51.678;6.074;2023-07-09T12:35:02;12.93;;;4.88;;
17618;SDS011;8928;51.678;6.074;2023-07-09T12:37:50;16.25;;;5.30;;
17618;SDS011;8928;51.678;6.074;2023-07-09T12:40:38;10.90;;;4.68;;
17618;SDS011;8928;51.678;6.074;2023-07-09T12:43:29;9.35;;;4.57;;
17618;SDS011;8928;51.678;6.074;2023-07-09T12:46:17;10.18;;;4.50;;
17618;SDS011;8928;51.678;6.074;2023-07-09T12:49:05;8.63;;;4.60;;
17618;SDS011;8928;51.678;6.074;2023-07-09T12:51:54;8.95;;;4.10;;
17618;SDS011;8928;51.678;6.074;2023-07-09T12:54:51;8.70;;;4.07;;
17618;SDS011;8928;51.678;6.074;2023-07-09T12:57:41;9.80;;;4.22;;
17618;SDS011;8928;51.678;6.074;2023-07-09T13:00:29;9.35;;;4.15;;
17618;SDS011;8928;51.678;6.074;2023-07-09T13:03:18;7.10;;;4.20;;
17618;SDS011;8928;51.678;6.074;2023-07-09T13:06:27;9.95;;;4.13;;
17618;SDS011;8928;51.678;6.074;2023-07-09T13:09:20;9.80;;;4.18;;
17618;SDS011;8928;51.678;6.074;2023-07-09T13:12:10;9.25;;;4.28;;
17618;SDS011;8928;51.678;6.074;2023-07-09T13:14:57;10.40;;;4.20;;
17618;SDS011;8928;51.678;6.074;2023-07-09T13:17:45;8.52;;;4.30;;
17618;SDS011;8928;51.678;6.074;2023-07-09T13:20:33;12.00;;;4.10;;
17618;SDS011;8928;51.678;6.074;2023-07-09T13:23:24;10.05;;;4.28;;
17618;SDS011;8928;51.678;6.074;2023-07-09T13:26:14;7.53;;;4.03;;
17618;SDS011;8928;51.678;6.074;2023-07-09T13:29:02;9.52;;;4.25;;
17618;SDS011;8928;51.678;6.074;2023-07-09T13:31:49;7.28;;;3.78;;
17618;SDS011;8928;51.678;6.074;2023-07-09T13:34:36;6.60;;;3.65;;
17618;SDS011;8928;51.678;6.074;2023-07-09T13:37:24;10.05;;;4.07;;
17618;SDS011;8928;51.678;6.074;2023-07-09T13:40:12;7.97;;;3.90;;
17618;SDS011;8928;51.678;6.074;2023-07-09T13:43:02;8.95;;;4.00;;
17618;SDS011;8928;51.678;6.074;2023-07-09T13:45:50;11.00;;;4.00;;
17618;SDS011;8928;51.678;6.074;2023-07-09T13:48:38;11.65;;;4.13;;
17618;SDS011;8928;51.678;6.074;2023-07-09T13:51:27;7.57;;;4.15;;
17618;SDS011;8928;51.678;6.074;2023-07-09T13:54:15;10.23;;;3.92;;
17618;SDS011;8928;51.678;6.074;2023-07-09T13:57:05;7.25;;;4.03;;
17618;SDS011;8928;51.678;6.074;2023-07-09T13:59:54;12.65;;;5.10;;
17618;SDS011;8928;51.678;6.074;2023-07-09T14:02:42;13.98;;;6.13;;
17618;SDS011;8928;51.678;6.074;2023-07-09T14:05:30;14.18;;;6.38;;
17618;SDS011;8928;51.678;6.074;2023-07-09T14:08:17;31.00;;;10.77;;
17618;SDS011;8928;51.678;6.074;2023-07-09T14:11:08;21.73;;;11.88;;
17618;SDS011;8928;51.678;6.074;2023-07-09T14:13:57;24.83;;;11.98;;
17618;SDS011;8928;51.678;6.074;2023-07-09T14:16:46;22.05;;;13.07;;
17618;SDS011;8928;51.678;6.074;2023-07-09T14:19:34;27.67;;;13.80;;
17618;SDS011;8928;51.678;6.074;2023-07-09T14:22:30;22.35;;;14.02;;
17618;SDS011;8928;51.678;6.074;2023-07-09T14:25:22;22.17;;;13.30;;
17618;SDS011;8928;51.678;6.074;2023-07-09T14:28:11;22.80;;;13.52;;
17618;SDS011;8928;51.678;6.074;2023-07-09T14:30:59;20.83;;;12.25;;
17618;SDS011;8928;51.678;6.074;2023-07-09T14:33:48;21.67;;;12.50;;
17618;SDS011;8928;51.678;6.074;2023-07-09T14:36:35;19.50;;;12.35;;
17618;SDS011;8928;51.678;6.074;2023-07-09T14:39:23;20.13;;;11.40;;
17618;SDS011;8928;51.678;6.074;2023-07-09T14:42:11;28.23;;;13.95;;
17618;SDS011;8928;51.678;6.074;2023-07-09T14:44:58;37.80;;;21.48;;
17618;SDS011;8928;51.678;6.074;2023-07-09T14:47:46;26.58;;;11.73;;
17618;SDS011;8928;51.678;6.074;2023-07-09T14:50:34;25.63;;;7.97;;
17618;SDS011;8928;51.678;6.074;2023-07-09T14:53:23;19.23;;;7.35;;
17618;SDS011;8928;51.678;6.074;2023-07-09T14:56:13;19.92;;;6.85;;
17618;SDS011;8928;51.678;6.074;2023-07-09T14:59:01;26.70;;;8.15;;
17618;SDS011;8928;51.678;6.074;2023-07-09T15:01:48;20.85;;;8.48;;
17618;SDS011;8928;51.678;6.074;2023-07-09T15:04:35;15.82;;;9.27;;
17618;SDS011;8928;51.678;6.074;2023-07-09T15:07:23;15.85;;;10.40;;
17618;SDS011;8928;51.678;6.074;2023-07-09T15:10:15;13.07;;;8.23;;
17618;SDS011;8928;51.678;6.074;2023-07-09T15:13:03;17.52;;;8.82;;
17618;SDS011;8928;51.678;6.074;2023-07-09T15:15:53;24.92;;;11.13;;
17618;SDS011;8928;51.678;6.074;2023-07-09T15:18:40;20.23;;;10.80;;
17618;SDS011;8928;51.678;6.074;2023-07-09T15:21:27;25.63;;;12.95;;
17618;SDS011;8928;51.678;6.074;2023-07-09T15:24:19;27.02;;;15.43;;
17618;SDS011;8928;51.678;6.074;2023-07-09T15:27:07;28.73;;;18.35;;
17618;SDS011;8928;51.678;6.074;2023-07-09T15:29:55;34.53;;;19.48;;
17618;SDS011;8928;51.678;6.074;2023-07-09T15:32:43;35.75;;;21.90;;
17618;SDS011;8928;51.678;6.074;2023-07-09T15:35:31;36.97;;;22.90;;
17618;SDS011;8928;51.678;6.074;2023-07-09T15:38:25;31.40;;;21.85;;
17618;SDS011;8928;51.678;6.074;2023-07-09T15:41:15;35.33;;;20.65;;
17618;SDS011;8928;51.678;6.074;2023-07-09T15:44:02;24.92;;;15.40;;
17618;SDS011;8928;51.678;6.074;2023-07-09T15:46:51;18.98;;;13.05;;
17618;SDS011;8928;51.678;6.074;2023-07-09T15:49:39;18.25;;;10.88;;
17618;SDS011;8928;51.678;6.074;2023-07-09T15:52:27;14.50;;;9.90;;
17618;SDS011;8928;51.678;6.074;2023-07-09T15:55:14;13.13;;;7.82;;
17618;SDS011;8928;51.678;6.074;2023-07-09T15:58:04;13.05;;;7.60;;
17618;SDS011;8928;51.678;6.074;2023-07-09T16:00:51;10.10;;;6.68;;
17618;SDS011;8928;51.678;6.074;2023-07-09T16:03:38;8.73;;;5.82;;
17618;SDS011;8928;51.678;6.074;2023-07-09T16:06:25;9.43;;;6.05;;
17618;SDS011;8928;51.678;6.074;2023-07-09T16:09:12;9.60;;;5.38;;
17618;SDS011;8928;51.678;6.074;2023-07-09T16:11:59;8.35;;;5.30;;
17618;SDS011;8928;51.678;6.074;2023-07-09T16:14:48;9.07;;;5.65;;
17618;SDS011;8928;51.678;6.074;2023-07-09T16:17:35;11.57;;;6.18;;
17618;SDS011;8928;51.678;6.074;2023-07-09T16:20:23;12.75;;;6.03;;
17618;SDS011;8928;51.678;6.074;2023-07-09T16:23:14;11.48;;;6.07;;
17618;SDS011;8928;51.678;6.074;2023-07-09T16:26:03;11.90;;;5.55;;
17618;SDS011;8928;51.678;6.074;2023-07-09T16:28:51;8.40;;;5.20;;
17618;SDS011;8928;51.678;6.074;2023-07-09T16:31:39;8.77;;;5.68;;
17618;SDS011;8928;51.678;6.074;2023-07-09T16:34:28;10.20;;;5.55;;
17618;SDS011;8928;51.678;6.074;2023-07-09T16:37:17;9.13;;;5.20;;
17618;SDS011;8928;51.678;6.074;2023-07-09T16:40:12;9.35;;;5.13;;
17618;SDS011;8928;51.678;6.074;2023-07-09T16:43:00;9.95;;;5.50;;
17618;SDS011;8928;51.678;6.074;2023-07-09T16:45:48;7.00;;;5.10;;
17618;SDS011;8928;51.678;6.074;2023-07-09T16:48:37;8.73;;;5.07;;
17618;SDS011;8928;51.678;6.074;2023-07-09T16:51:24;10.95;;;4.88;;
17618;SDS011;8928;51.678;6.074;2023-07-09T16:54:11;7.85;;;5.10;;
17618;SDS011;8928;51.678;6.074;2023-07-09T16:56:58;8.73;;;4.90;;
17618;SDS011;8928;51.678;6.074;2023-07-09T16:59:45;8.82;;;4.78;;